Time;durP1;ratioP1;P1;durP2;ratioP2;P2;SDS_P1;SDS_P2;PMS_P1;PMS_P2;Temp;Humidity;BMP_temperature;BMP_pressure;BME280_temperature;BME280_humidity;BME280_pressure;Samples;Min_cycle;Max_cycle;Signal;HPM_P1;HPM_P2
2024/01/03 00:01:27;;;;;;;18.50;2.47;;;10.40;99.90;;;;;;5055986;28;20045;-74
2024/01/03 00:03:57;;;;;;;14.38;2.63;;;10.40;99.90;;;;;;5062257;28;20711;-73
2024/01/03 00:06:25;;;;;;;18.58;4.28;;;10.40;99.90;;;;;;5062447;28;20048;-74
2024/01/03 00:08:52;;;;;;;13.80;2.95;;;10.40;99.90;;;;;;5066115;28;20059;-73
2024/01/03 00:11:20;;;;;;;17.58;3.00;;;10.40;99.90;;;;;;5066226;28;20522;-73
2024/01/03 00:13:50;;;;;;;15.32;3.35;;;10.40;99.90;;;;;;5066989;28;20091;-73
2024/01/03 00:16:23;;;;;;;17.95;3.20;;;10.30;99.90;;;;;;5069158;28;20052;-73
2024/01/03 00:18:58;;;;;;;13.98;2.90;;;10.40;99.90;;;;;;5066522;28;20044;-73
2024/01/03 00:21:26;;;;;;;21.30;3.45;;;10.30;99.90;;;;;;5068358;28;20529;-73
2024/01/03 00:23:57;;;;;;;19.35;3.22;;;10.30;99.90;;;;;;5058432;28;20053;-73
2024/01/03 00:26:24;;;;;;;19.27;3.22;;;10.20;99.90;;;;;;5066476;28;20045;-74
2024/01/03 00:28:51;;;;;;;27.08;3.67;;;10.20;99.90;;;;;;5067157;28;20094;-73
2024/01/03 00:31:25;;;;;;;19.48;3.13;;;10.20;99.90;;;;;;5066515;28;20411;-73
2024/01/03 00:33:52;;;;;;;12.63;2.38;;;10.20;99.90;;;;;;5066328;28;20561;-74
2024/01/03 00:36:19;;;;;;;23.30;3.25;;;10.20;99.90;;;;;;5061354;28;20476;-75
2024/01/03 00:38:46;;;;;;;16.80;3.28;;;10.20;99.90;;;;;;5045975;28;20393;-74
2024/01/03 00:41:13;;;;;;;17.75;2.70;;;10.20;99.90;;;;;;5063349;28;20398;-74
2024/01/03 00:43:40;;;;;;;18.23;4.47;;;10.20;99.90;;;;;;5067908;28;20076;-75
2024/01/03 00:46:09;;;;;;;17.23;3.58;;;10.20;99.90;;;;;;5071677;28;20045;-76
2024/01/03 00:48:36;;;;;;;20.15;3.20;;;10.10;99.90;;;;;;5069203;28;20044;-73
2024/01/03 00:51:04;;;;;;;21.27;4.15;;;10.20;99.90;;;;;;5066714;28;20045;-74
2024/01/03 00:53:31;;;;;;;29.40;4.13;;;10.20;99.90;;;;;;5064818;28;20049;-75
2024/01/03 00:55:59;;;;;;;26.88;5.20;;;10.20;99.90;;;;;;5066003;28;20403;-73
2024/01/03 00:58:26;;;;;;;14.88;2.72;;;10.20;99.90;;;;;;5060359;28;20036;-75
2024/01/03 01:00:53;;;;;;;18.75;4.03;;;10.20;99.90;;;;;;5065575;28;20102;-74
2024/01/03 01:03:20;;;;;;;19.52;4.28;;;10.20;99.90;;;;;;5066736;28;20452;-74
2024/01/03 01:05:47;;;;;;;21.73;2.90;;;10.20;99.90;;;;;;5056642;28;20062;-75
2024/01/03 01:08:14;;;;;;;16.10;2.80;;;10.20;99.90;;;;;;5068516;28;20237;-73
2024/01/03 01:10:45;;;;;;;19.55;4.28;;;10.20;99.90;;;;;;5065161;28;20041;-73
2024/01/03 01:13:11;;;;;;;17.95;2.80;;;10.20;99.90;;;;;;5065022;28;20048;-73
2024/01/03 01:15:38;;;;;;;12.80;3.88;;;10.20;99.90;;;;;;5065689;28;20078;-73
2024/01/03 01:18:05;;;;;;;30.75;3.95;;;10.30;99.90;;;;;;5065347;28;20036;-73
2024/01/03 01:20:32;;;;;;;15.77;2.45;;;10.20;99.90;;;;;;5067589;28;20048;-73
2024/01/03 01:22:59;;;;;;;12.15;2.53;;;10.20;99.90;;;;;;5064388;28;20446;-71
2024/01/03 01:25:26;;;;;;;26.23;4.45;;;10.30;99.90;;;;;;5067336;28;20057;-75
2024/01/03 01:27:53;;;;;;;22.17;4.30;;;10.30;99.90;;;;;;5066050;28;20041;-73
2024/01/03 01:30:20;;;;;;;23.33;4.43;;;10.30;99.90;;;;;;5067316;28;20252;-74
2024/01/03 01:32:48;;;;;;;22.95;4.15;;;10.20;99.90;;;;;;5065695;28;20045;-74
2024/01/03 01:35:15;;;;;;;24.55;4.32;;;10.20;99.90;;;;;;5063767;28;20041;-74
2024/01/03 01:37:42;;;;;;;17.98;3.67;;;10.20;99.90;;;;;;5063636;28;20350;-73
2024/01/03 01:40:10;;;;;;;23.48;4.25;;;10.20;99.90;;;;;;5064036;28;20064;-74
2024/01/03 01:42:41;;;;;;;20.15;4.28;;;10.20;99.90;;;;;;5061870;28;20041;-75
2024/01/03 01:45:08;;;;;;;30.67;4.75;;;10.20;99.90;;;;;;5062248;28;20491;-74
2024/01/03 01:47:36;;;;;;;23.90;4.63;;;10.20;99.90;;;;;;5066891;28;20037;-75
2024/01/03 01:50:04;;;;;;;25.42;3.50;;;10.20;99.90;;;;;;5060011;28;20131;-74
2024/01/03 01:52:31;;;;;;;18.45;5.25;;;10.20;99.90;;;;;;5061295;28;20056;-74
2024/01/03 01:54:58;;;;;;;26.45;4.90;;;10.10;99.90;;;;;;5061867;28;20117;-75
2024/01/03 01:57:25;;;;;;;11.43;2.80;;;10.20;99.90;;;;;;5057231;28;20468;-73
2024/01/03 01:59:52;;;;;;;23.15;3.80;;;10.10;99.90;;;;;;5063695;28;20053;-72
2024/01/03 02:02:19;;;;;;;22.70;5.60;;;10.10;99.90;;;;;;5063168;28;20529;-74
2024/01/03 02:04:46;;;;;;;30.45;4.28;;;10.10;99.90;;;;;;5062879;28;20476;-74
2024/01/03 02:07:13;;;;;;;22.48;3.53;;;10.10;99.90;;;;;;5067120;28;20132;-73
2024/01/03 02:09:42;;;;;;;26.42;4.38;;;10.10;99.90;;;;;;5063809;28;20474;-73
2024/01/03 02:12:09;;;;;;;23.15;4.68;;;10.00;99.90;;;;;;5066687;28;20045;-75
2024/01/03 02:14:35;;;;;;;21.13;3.60;;;10.00;99.90;;;;;;5063025;28;20478;-72
2024/01/03 02:17:02;;;;;;;47.80;8.07;;;10.00;99.90;;;;;;5067871;28;20044;-73
2024/01/03 02:19:29;;;;;;;19.85;3.30;;;10.00;99.90;;;;;;5062770;28;20114;-74
2024/01/03 02:21:56;;;;;;;33.22;5.40;;;9.90;99.90;;;;;;5069331;28;20048;-74
2024/01/03 02:24:23;;;;;;;23.80;3.92;;;9.90;99.90;;;;;;5064576;28;20052;-74
2024/01/03 02:26:50;;;;;;;24.23;3.78;;;9.90;99.90;;;;;;5066334;28;20048;-74
2024/01/03 02:29:17;;;;;;;24.25;3.45;;;9.90;99.90;;;;;;5062222;28;20476;-72
2024/01/03 02:31:44;;;;;;;22.73;3.65;;;9.90;99.90;;;;;;5066730;28;20138;-74
2024/01/03 02:34:11;;;;;;;15.68;3.67;;;10.00;99.90;;;;;;5074490;28;20089;-74
2024/01/03 02:36:38;;;;;;;18.88;2.88;;;10.00;99.90;;;;;;5065457;28;20139;-73
2024/01/03 02:39:05;;;;;;;19.38;3.55;;;10.00;99.90;;;;;;5065228;28;20373;-74
2024/01/03 02:41:31;;;;;;;22.55;3.55;;;10.00;99.90;;;;;;5063952;28;20389;-73
2024/01/03 02:43:58;;;;;;;26.00;4.20;;;10.00;99.90;;;;;;5066065;28;20068;-73
2024/01/03 02:46:25;;;;;;;14.57;2.85;;;10.00;99.90;;;;;;5063915;28;20201;-74
2024/01/03 02:48:52;;;;;;;28.33;5.28;;;10.00;99.90;;;;;;5066532;28;20052;-74
2024/01/03 02:51:21;;;;;;;21.08;2.83;;;10.00;99.90;;;;;;5065548;28;20040;-74
2024/01/03 02:53:49;;;;;;;14.43;2.95;;;10.00;99.90;;;;;;5064990;28;20040;-74
2024/01/03 02:56:16;;;;;;;17.50;2.63;;;10.00;99.90;;;;;;5065625;28;20052;-73
2024/01/03 02:58:42;;;;;;;15.93;3.90;;;10.00;99.90;;;;;;5066746;28;20043;-74
2024/01/03 03:01:09;;;;;;;22.35;4.22;;;10.00;99.90;;;;;;5068334;28;20072;-73
2024/01/03 03:03:36;;;;;;;22.27;2.65;;;10.00;99.90;;;;;;5066238;28;20045;-73
2024/01/03 03:06:04;;;;;;;24.30;4.68;;;10.00;99.90;;;;;;5063920;28;20049;-73
2024/01/03 03:08:31;;;;;;;23.55;4.07;;;10.00;99.90;;;;;;5064766;28;20158;-74
2024/01/03 03:10:58;;;;;;;23.10;2.95;;;9.90;99.90;;;;;;5063972;28;20055;-72
2024/01/03 03:13:26;;;;;;;17.90;3.05;;;10.00;99.90;;;;;;5066039;28;20068;-71
2024/01/03 03:15:53;;;;;;;14.50;3.50;;;9.90;99.90;;;;;;5073257;28;20040;-73
2024/01/03 03:18:20;;;;;;;11.80;2.13;;;10.00;99.90;;;;;;5062091;28;20043;-73
2024/01/03 03:20:48;;;;;;;18.65;3.90;;;10.00;99.90;;;;;;5063871;28;20066;-73
2024/01/03 03:23:14;;;;;;;14.68;3.00;;;10.00;99.90;;;;;;5058298;28;20098;-72
2024/01/03 03:25:41;;;;;;;17.65;2.17;;;10.00;99.90;;;;;;5068911;28;20491;-73
2024/01/03 03:28:08;;;;;;;19.27;2.85;;;10.00;99.90;;;;;;5062974;28;20040;-74
2024/01/03 03:30:36;;;;;;;15.93;4.18;;;10.00;99.90;;;;;;5062229;28;20136;-73
2024/01/03 03:33:03;;;;;;;13.82;2.42;;;10.00;99.90;;;;;;5065032;28;20346;-75
2024/01/03 03:35:30;;;;;;;9.27;2.03;;;10.00;99.90;;;;;;5064334;28;20044;-74
2024/01/03 03:37:57;;;;;;;15.35;3.65;;;10.00;99.90;;;;;;5063995;28;20072;-73
2024/01/03 03:40:24;;;;;;;16.42;2.85;;;10.00;99.90;;;;;;5063957;28;20048;-74
2024/01/03 03:42:52;;;;;;;21.92;4.78;;;10.10;99.90;;;;;;5068443;28;20131;-75
2024/01/03 03:45:18;;;;;;;11.55;3.75;;;10.10;99.90;;;;;;5066435;28;20491;-74
2024/01/03 03:47:47;;;;;;;12.23;2.72;;;10.10;99.90;;;;;;5072607;28;20064;-74
2024/01/03 03:50:14;;;;;;;8.90;1.40;;;10.00;99.90;;;;;;5065593;28;20044;-74
2024/01/03 03:52:41;;;;;;;11.48;1.85;;;10.10;99.90;;;;;;5069150;28;20060;-73
2024/01/03 03:55:08;;;;;;;6.03;1.77;;;10.00;99.90;;;;;;5067941;28;20063;-71
2024/01/03 03:57:35;;;;;;;14.35;1.80;;;10.00;99.90;;;;;;5068999;28;20045;-73
2024/01/03 04:00:05;;;;;;;13.70;2.13;;;10.00;99.90;;;;;;5065132;28;20044;-73
2024/01/03 04:02:32;;;;;;;13.18;1.52;;;10.00;99.90;;;;;;5051876;28;20051;-74
2024/01/03 04:04:59;;;;;;;12.65;2.40;;;10.00;99.90;;;;;;5066073;28;20049;-74
2024/01/03 04:07:28;;;;;;;14.00;2.08;;;10.00;99.90;;;;;;5064720;28;20049;-73
2024/01/03 04:09:55;;;;;;;12.23;1.90;;;10.00;99.90;;;;;;5067853;28;20290;-73
2024/01/03 04:12:22;;;;;;;15.57;3.05;;;10.00;99.90;;;;;;5068894;28;20049;-73
2024/01/03 04:14:48;;;;;;;21.45;3.05;;;10.00;99.90;;;;;;5068471;28;20048;-74
2024/01/03 04:17:16;;;;;;;14.50;1.98;;;10.10;99.90;;;;;;5062369;28;20559;-73
2024/01/03 04:19:43;;;;;;;13.65;3.33;;;10.10;99.90;;;;;;5061445;28;20447;-73
2024/01/03 04:22:09;;;;;;;14.07;2.25;;;10.10;99.90;;;;;;5068495;28;20044;-73
2024/01/03 04:24:36;;;;;;;21.67;2.50;;;10.20;99.90;;;;;;5068172;28;20049;-75
2024/01/03 04:27:03;;;;;;;13.65;3.05;;;10.20;99.90;;;;;;5077073;28;20044;-73
2024/01/03 04:29:30;;;;;;;14.05;2.03;;;10.20;99.90;;;;;;5068343;28;20098;-73
2024/01/03 04:31:58;;;;;;;15.45;2.40;;;10.20;99.90;;;;;;5068534;28;20151;-73
2024/01/03 04:34:24;;;;;;;17.38;2.10;;;10.20;99.90;;;;;;5067712;28;20483;-73
2024/01/03 04:36:52;;;;;;;12.85;2.03;;;10.20;99.90;;;;;;5067438;28;20048;-73
2024/01/03 04:39:18;;;;;;;11.15;3.38;;;10.20;99.90;;;;;;5064580;28;20085;-75
2024/01/03 04:41:45;;;;;;;11.48;3.22;;;10.20;99.90;;;;;;5063427;28;20045;-73
2024/01/03 04:44:12;;;;;;;13.52;1.92;;;10.20;99.90;;;;;;5065911;28;20044;-73
2024/01/03 04:46:39;;;;;;;8.98;2.25;;;10.20;99.90;;;;;;5071368;28;20110;-73
2024/01/03 04:49:05;;;;;;;16.92;2.95;;;10.30;99.90;;;;;;5067165;28;20090;-73
2024/01/03 04:51:32;;;;;;;10.75;1.52;;;10.20;99.90;;;;;;5064852;28;20044;-74
2024/01/03 04:53:59;;;;;;;9.93;1.33;;;10.30;99.90;;;;;;5062816;28;20086;-73
2024/01/03 04:56:29;;;;;;;12.00;3.65;;;10.20;99.90;;;;;;5064911;28;20178;-73
2024/01/03 04:58:56;;;;;;;9.57;2.13;;;10.20;99.90;;;;;;5066306;28;20087;-73
2024/01/03 05:01:23;;;;;;;13.32;1.85;;;10.20;99.90;;;;;;5068588;28;20465;-74
2024/01/03 05:03:50;;;;;;;6.50;1.70;;;10.20;99.90;;;;;;5059328;28;20109;-74
2024/01/03 05:06:17;;;;;;;12.75;1.52;;;10.20;99.90;;;;;;5067651;28;20048;-74
2024/01/03 05:08:44;;;;;;;14.20;1.70;;;10.20;99.90;;;;;;5064457;28;20032;-76
2024/01/03 05:11:10;;;;;;;6.43;1.48;;;10.10;99.90;;;;;;5064568;28;20509;-73
2024/01/03 05:13:42;;;;;;;5.53;1.15;;;10.10;99.90;;;;;;5056708;28;20040;-74
2024/01/03 05:16:08;;;;;;;9.82;2.22;;;10.20;99.90;;;;;;5065543;28;20095;-74
2024/01/03 05:18:36;;;;;;;16.92;2.75;;;10.20;99.90;;;;;;5057500;28;20084;-73
2024/01/03 05:21:05;;;;;;;13.60;1.88;;;10.10;99.90;;;;;;5065778;28;20541;-73
2024/01/03 05:23:32;;;;;;;10.18;1.63;;;10.10;99.90;;;;;;5060570;28;20045;-74
2024/01/03 05:25:59;;;;;;;11.32;1.60;;;10.10;99.90;;;;;;5064774;28;20063;-74
2024/01/03 05:28:26;;;;;;;6.88;1.55;;;10.10;99.90;;;;;;5070510;28;20137;-73
2024/01/03 05:30:53;;;;;;;8.88;1.73;;;10.10;99.90;;;;;;5066240;28;20053;-74
2024/01/03 05:33:19;;;;;;;11.35;1.80;;;10.10;99.90;;;;;;5068158;28;20054;-73
2024/01/03 05:35:46;;;;;;;12.25;2.40;;;10.10;99.90;;;;;;5065733;28;20522;-73
2024/01/03 05:38:14;;;;;;;12.35;1.98;;;10.00;99.90;;;;;;5062720;28;20052;-72
2024/01/03 05:40:41;;;;;;;11.55;1.70;;;10.00;99.90;;;;;;5064179;28;20040;-74
2024/01/03 05:43:08;;;;;;;8.20;2.13;;;10.00;99.90;;;;;;5065499;28;20471;-74
2024/01/03 05:45:35;;;;;;;12.32;1.73;;;10.00;99.90;;;;;;5064128;28;20135;-74
2024/01/03 05:48:02;;;;;;;20.90;2.53;;;9.90;99.90;;;;;;5063780;28;20044;-73
2024/01/03 05:50:29;;;;;;;9.10;1.83;;;9.90;99.90;;;;;;5058886;28;20523;-72
2024/01/03 05:52:56;;;;;;;15.45;2.22;;;9.90;99.90;;;;;;5067224;28;20044;-75
2024/01/03 05:55:23;;;;;;;15.95;2.00;;;9.80;99.90;;;;;;5065754;28;20143;-74
2024/01/03 05:57:50;;;;;;;11.43;2.10;;;9.80;99.90;;;;;;5062132;28;20059;-75
2024/01/03 06:00:17;;;;;;;13.68;2.10;;;9.80;99.90;;;;;;5065507;28;20115;-73
2024/01/03 06:02:44;;;;;;;13.02;1.90;;;9.80;99.90;;;;;;5066317;28;20040;-74
2024/01/03 06:05:16;;;;;;;6.88;1.60;;;9.80;99.90;;;;;;5061156;28;20080;-73
2024/01/03 06:07:46;;;;;;;12.40;2.60;;;9.70;99.90;;;;;;5062777;28;20087;-72
2024/01/03 06:10:13;;;;;;;5.90;2.15;;;9.70;99.90;;;;;;5063080;28;20044;-75
2024/01/03 06:12:40;;;;;;;7.60;1.52;;;9.70;99.90;;;;;;5072125;28;20094;-72
2024/01/03 06:15:07;;;;;;;18.42;3.80;;;9.70;99.90;;;;;;5062564;28;20495;-73
2024/01/03 06:17:35;;;;;;;15.15;2.40;;;9.70;99.90;;;;;;5066270;28;20053;-73
2024/01/03 06:20:03;;;;;;;10.00;1.70;;;9.70;99.90;;;;;;5062993;28;20051;-73
2024/01/03 06:22:30;;;;;;;11.13;1.88;;;9.60;99.90;;;;;;5050604;28;20076;-74
2024/01/03 06:24:56;;;;;;;16.17;2.75;;;9.60;99.90;;;;;;5057291;28;20044;-74
2024/01/03 06:27:23;;;;;;;16.25;1.98;;;9.60;99.90;;;;;;5064907;28;20048;-73
2024/01/03 06:29:50;;;;;;;15.57;1.48;;;9.60;99.90;;;;;;5062074;28;20055;-73
2024/01/03 06:32:17;;;;;;;16.02;2.00;;;9.60;99.90;;;;;;5060400;28;20040;-73
2024/01/03 06:34:44;;;;;;;18.25;2.13;;;9.60;99.90;;;;;;5066770;28;20049;-72
2024/01/03 06:37:11;;;;;;;16.70;3.60;;;9.60;99.90;;;;;;5064931;28;20044;-74
2024/01/03 06:39:38;;;;;;;8.50;2.28;;;9.60;99.90;;;;;;5064404;28;20086;-73
2024/01/03 06:42:05;;;;;;;17.08;3.85;;;9.60;99.90;;;;;;5059675;28;20488;-73
2024/01/03 06:44:32;;;;;;;14.57;2.22;;;9.50;99.90;;;;;;5058691;28;20033;-73
2024/01/03 06:46:59;;;;;;;13.55;3.00;;;9.50;99.90;;;;;;5063335;28;20499;-73
2024/01/03 06:49:26;;;;;;;17.27;2.95;;;9.50;99.90;;;;;;5061694;28;20101;-73
2024/01/03 06:51:53;;;;;;;14.68;2.60;;;9.50;99.90;;;;;;5060829;28;20128;-71
2024/01/03 06:54:19;;;;;;;11.40;2.63;;;9.60;99.90;;;;;;5063660;28;20104;-71
2024/01/03 06:56:46;;;;;;;23.10;4.97;;;9.60;99.90;;;;;;5061226;28;20071;-72
2024/01/03 06:59:13;;;;;;;12.05;2.83;;;9.60;99.90;;;;;;5063955;28;20079;-72
2024/01/03 07:01:40;;;;;;;7.85;1.33;;;9.60;99.90;;;;;;5064717;28;20048;-72
2024/01/03 07:04:07;;;;;;;15.25;3.50;;;9.60;99.90;;;;;;4710286;28;10000023;-71
2024/01/03 07:06:34;;;;;;;21.83;3.67;;;9.60;99.90;;;;;;5059836;28;20083;-73
2024/01/03 07:09:00;;;;;;;20.88;2.65;;;9.50;99.90;;;;;;5061188;28;20048;-72
2024/01/03 07:11:27;;;;;;;24.20;2.80;;;9.50;99.90;;;;;;5061004;28;20052;-73
2024/01/03 07:13:55;;;;;;;15.77;3.15;;;9.50;99.90;;;;;;5057083;28;20079;-72
2024/01/03 07:16:21;;;;;;;12.40;2.78;;;9.50;99.90;;;;;;4711751;28;10000707;-73
2024/01/03 07:18:48;;;;;;;20.38;2.80;;;9.50;99.90;;;;;;5069892;28;20048;-73
2024/01/03 07:21:16;;;;;;;11.63;3.42;;;9.50;99.90;;;;;;5068912;28;20052;-74
2024/01/03 07:23:42;;;;;;;14.75;2.72;;;9.50;99.90;;;;;;5073572;28;20454;-73
2024/01/03 07:26:09;;;;;;;21.50;2.78;;;9.50;99.90;;;;;;5067816;28;20434;-72
2024/01/03 07:28:37;;;;;;;19.10;2.45;;;9.50;99.90;;;;;;5067020;28;20441;-72
2024/01/03 07:31:04;;;;;;;16.65;2.42;;;9.50;99.90;;;;;;5063122;28;20479;-72
2024/01/03 07:33:31;;;;;;;16.75;3.70;;;9.50;99.90;;;;;;5068597;28;20074;-73
2024/01/03 07:35:58;;;;;;;24.13;2.88;;;9.50;99.90;;;;;;5067302;28;20340;-71
2024/01/03 07:38:25;;;;;;;10.40;2.05;;;9.50;99.90;;;;;;5064484;28;20423;-74
2024/01/03 07:40:52;;;;;;;27.70;6.22;;;9.50;99.90;;;;;;5069493;28;20036;-78
2024/01/03 07:43:19;;;;;;;24.02;6.68;;;9.50;99.90;;;;;;5069386;28;20504;-81
2024/01/03 07:45:45;;;;;;;16.77;3.15;;;9.50;99.90;;;;;;5069480;28;20041;-78
2024/01/03 07:48:12;;;;;;;21.88;2.75;;;9.50;99.90;;;;;;5060264;28;20055;-77
2024/01/03 07:50:40;;;;;;;27.92;3.30;;;9.50;99.90;;;;;;5068850;28;20052;-78
2024/01/03 07:53:07;;;;;;;13.57;3.33;;;9.50;99.90;;;;;;5067725;28;20288;-78
2024/01/03 07:55:34;;;;;;;16.75;3.15;;;9.40;99.90;;;;;;5064142;28;20041;-78
2024/01/03 07:58:01;;;;;;;24.23;3.80;;;9.40;99.90;;;;;;5068033;28;20052;-78
2024/01/03 08:00:31;;;;;;;16.60;3.42;;;9.40;99.90;;;;;;5066603;28;20691;-81
2024/01/03 08:02:58;;;;;;;20.63;3.53;;;9.40;99.90;;;;;;5066026;28;20106;-79
2024/01/03 08:05:25;;;;;;;20.50;3.67;;;9.40;99.90;;;;;;5061762;28;20049;-78
2024/01/03 08:07:52;;;;;;;27.48;3.95;;;9.40;99.90;;;;;;5066456;28;20052;-78
2024/01/03 08:10:19;;;;;;;21.63;3.42;;;9.40;99.90;;;;;;5064105;28;20048;-80
2024/01/03 08:12:45;;;;;;;26.70;4.05;;;9.30;99.90;;;;;;5067974;28;20041;-78
2024/01/03 08:15:15;;;;;;;30.80;4.40;;;9.30;99.90;;;;;;5062204;28;20048;-79
2024/01/03 08:17:42;;;;;;;24.75;5.05;;;9.30;99.90;;;;;;5064331;28;20048;-79
2024/01/03 08:20:10;;;;;;;23.58;3.40;;;9.30;99.90;;;;;;5066124;28;20082;-78
2024/01/03 08:22:38;;;;;;;23.13;3.70;;;9.30;99.90;;;;;;5063088;28;20087;-78
2024/01/03 08:25:05;;;;;;;29.33;5.63;;;9.30;99.90;;;;;;5061739;28;20041;-79
2024/01/03 08:27:36;;;;;;;24.13;5.00;;;9.30;99.90;;;;;;5062793;28;20048;-79
2024/01/03 08:30:03;;;;;;;18.75;4.63;;;9.30;99.90;;;;;;5060995;28;20055;-78
2024/01/03 08:32:30;;;;;;;28.45;4.30;;;9.30;99.90;;;;;;5062161;28;20048;-78
2024/01/03 08:34:57;;;;;;;33.63;5.28;;;9.30;99.90;;;;;;5067065;28;20048;-79
2024/01/03 08:37:23;;;;;;;31.08;3.92;;;9.30;99.90;;;;;;5065261;28;20556;-79
2024/01/03 08:39:50;;;;;;;37.53;9.05;;;9.40;99.90;;;;;;5060568;28;20044;-79
2024/01/03 08:42:17;;;;;;;24.70;4.45;;;9.40;99.90;;;;;;5063211;28;20129;-77
2024/01/03 08:44:44;;;;;;;37.78;6.38;;;9.40;99.90;;;;;;5063897;28;20049;-76
2024/01/03 08:47:13;;;;;;;33.55;4.82;;;9.50;99.90;;;;;;5064723;28;20663;-76
2024/01/03 08:49:42;;;;;;;30.75;4.47;;;9.50;99.90;;;;;;5066189;28;20514;-76
2024/01/03 08:52:10;;;;;;;23.70;4.97;;;9.50;99.90;;;;;;5063557;28;20131;-76
2024/01/03 08:54:37;;;;;;;36.38;5.78;;;9.50;99.90;;;;;;5062757;28;20682;-78
2024/01/03 08:57:04;;;;;;;36.33;4.97;;;9.50;99.90;;;;;;5064316;28;20048;-78
2024/01/03 08:59:31;;;;;;;29.48;5.15;;;9.50;99.90;;;;;;5066307;28;20045;-76
2024/01/03 09:01:57;;;;;;;32.67;4.82;;;9.50;99.90;;;;;;5064261;28;20053;-76
2024/01/03 09:04:24;;;;;;;39.03;7.38;;;9.50;99.90;;;;;;5066878;28;20056;-77
2024/01/03 09:06:52;;;;;;;31.63;5.43;;;9.50;99.90;;;;;;5057412;28;20165;-76
2024/01/03 09:09:19;;;;;;;24.83;6.78;;;9.50;99.90;;;;;;5064379;28;20056;-76
2024/01/03 09:11:46;;;;;;;37.47;5.93;;;9.60;99.90;;;;;;5058787;28;20036;-77
2024/01/03 09:14:13;;;;;;;30.95;4.45;;;9.60;99.90;;;;;;5061376;28;20393;-81
2024/01/03 09:16:40;;;;;;;28.02;4.82;;;9.60;99.90;;;;;;5062975;28;20080;-78
2024/01/03 09:19:07;;;;;;;31.58;4.63;;;9.60;99.90;;;;;;5071620;28;20044;-77
2024/01/03 09:21:43;;;;;;;29.10;4.68;;;9.60;99.90;;;;;;5066554;28;20059;-78
2024/01/03 09:24:10;;;;;;;40.63;6.40;;;9.70;99.90;;;;;;5066515;28;20131;-77
2024/01/03 09:26:37;;;;;;;28.27;4.88;;;9.70;99.90;;;;;;5056663;28;20443;-76
2024/01/03 09:29:05;;;;;;;27.13;4.75;;;9.70;99.90;;;;;;5064041;28;20067;-77
2024/01/03 09:31:33;;;;;;;27.17;5.45;;;9.70;99.90;;;;;;5063774;28;20131;-77
2024/01/03 09:34:00;;;;;;;25.17;4.80;;;9.70;99.90;;;;;;5063589;28;20048;-77
2024/01/03 09:36:27;;;;;;;31.63;5.70;;;9.70;99.90;;;;;;5063568;28;20098;-76
2024/01/03 09:38:54;;;;;;;33.75;6.78;;;9.70;99.90;;;;;;5064703;28;20094;-78
2024/01/03 09:41:22;;;;;;;33.08;6.47;;;9.80;99.90;;;;;;5064329;28;20041;-78
2024/01/03 09:43:52;;;;;;;41.80;6.65;;;9.80;99.90;;;;;;5065967;28;20132;-79
2024/01/03 09:46:20;;;;;;;40.47;6.38;;;9.80;99.90;;;;;;5048817;28;20047;-79
2024/01/03 09:48:48;;;;;;;21.35;4.63;;;9.90;99.90;;;;;;5070606;28;20063;-78
2024/01/03 09:51:16;;;;;;;37.58;7.50;;;9.90;99.90;;;;;;5065205;28;20123;-77
2024/01/03 09:53:43;;;;;;;26.27;5.03;;;10.00;99.90;;;;;;5065316;28;20048;-79
2024/01/03 09:56:10;;;;;;;26.55;5.95;;;10.10;99.90;;;;;;5061957;28;20274;-76
2024/01/03 09:58:37;;;;;;;29.77;4.68;;;10.20;99.90;;;;;;5067310;28;20049;-77
2024/01/03 10:01:10;;;;;;;27.25;4.43;;;10.30;99.90;;;;;;5109087;27;20385;-78
2024/01/03 10:03:37;;;;;;;26.27;5.63;;;10.40;99.90;;;;;;5107542;28;20062;-77
2024/01/03 10:06:04;;;;;;;24.58;6.30;;;10.40;99.90;;;;;;5105040;28;20071;-77
2024/01/03 10:08:31;;;;;;;33.88;5.70;;;10.40;99.90;;;;;;5103987;28;20062;-77
2024/01/03 10:10:58;;;;;;;21.52;3.95;;;10.50;99.90;;;;;;5103700;28;20050;-76
2024/01/03 10:13:27;;;;;;;16.98;3.65;;;10.50;99.90;;;;;;5104564;28;20387;-78
2024/01/03 10:15:54;;;;;;;31.98;3.63;;;10.50;99.90;;;;;;5103147;28;20043;-77
2024/01/03 10:18:21;;;;;;;20.42;3.88;;;10.60;99.90;;;;;;5100741;28;20089;-76
2024/01/03 10:20:53;;;;;;;31.77;4.30;;;10.70;99.90;;;;;;5098738;28;20137;-78
2024/01/03 10:23:20;;;;;;;22.15;4.07;;;10.70;99.90;;;;;;5101733;28;20054;-77
2024/01/03 10:25:47;;;;;;;28.50;4.70;;;10.80;99.90;;;;;;5101282;28;20040;-78
2024/01/03 10:28:17;;;;;;;29.20;4.93;;;10.90;99.90;;;;;;5085039;28;20048;-77
2024/01/03 10:30:51;;;;;;;25.05;4.30;;;11.00;99.90;;;;;;5098346;28;20040;-77
2024/01/03 10:33:18;;;;;;;;;;;11.00;99.90;;;;;;5086293;28;20047;-77
2024/01/03 10:35:45;;;;;;;20.77;4.10;;;11.00;99.90;;;;;;5103788;28;20286;-76
2024/01/03 10:38:16;;;;;;;24.73;3.85;;;11.10;99.90;;;;;;5101994;28;20310;-77
2024/01/03 10:40:44;;;;;;;23.52;3.85;;;11.10;99.90;;;;;;5086342;28;20079;-78
2024/01/03 10:43:11;;;;;;;22.70;3.10;;;11.10;99.90;;;;;;5101192;28;20135;-77
2024/01/03 10:45:38;;;;;;;23.52;3.58;;;11.10;99.90;;;;;;5102976;28;20474;-77
2024/01/03 10:48:05;;;;;;;19.35;3.92;;;11.00;99.90;;;;;;5101701;28;20457;-76
2024/01/03 10:50:34;;;;;;;16.92;3.85;;;11.00;99.90;;;;;;5085985;28;20063;-76
2024/01/03 10:53:02;;;;;;;18.75;3.17;;;10.90;99.90;;;;;;5101449;28;20184;-77
2024/01/03 10:55:38;;;;;;;16.50;3.65;;;10.80;99.90;;;;;;5084819;28;20048;-76
2024/01/03 10:58:13;;;;;;;14.70;2.50;;;10.80;99.90;;;;;;5101953;28;20059;-75
2024/01/03 11:01:05;;;;;;;18.77;2.40;;;10.70;99.90;;;;;;5101555;28;20410;-76
2024/01/03 11:04:03;;;;;;;19.55;5.60;;;10.70;99.90;;;;;;5082876;28;20124;-78
2024/01/03 11:06:52;;;;;;;16.30;3.58;;;10.70;99.90;;;;;;5095132;28;20043;-78
2024/01/03 11:09:21;;;;;;;15.50;3.63;;;10.80;99.90;;;;;;5066359;28;20597;-77
2024/01/03 11:11:51;;;;;;;24.38;3.17;;;10.80;99.90;;;;;;5072424;28;20048;-77
2024/01/03 11:14:18;;;;;;;18.75;3.13;;;10.80;99.90;;;;;;5053126;28;20128;-77
2024/01/03 11:16:45;;;;;;;14.02;2.88;;;10.90;99.90;;;;;;5089954;28;20064;-78
2024/01/03 11:19:12;;;;;;;20.63;3.33;;;10.90;99.90;;;;;;5087721;28;20044;-76
2024/01/03 11:21:43;;;;;;;25.55;3.97;;;11.00;99.90;;;;;;5089793;28;20097;-77
2024/01/03 11:24:32;;;;;;;27.92;4.95;;;11.10;99.90;;;;;;5085435;28;20075;-77
2024/01/03 11:27:06;;;;;;;18.60;3.50;;;11.10;99.90;;;;;;5081303;28;20501;-76
2024/01/03 11:29:41;;;;;;;17.17;3.50;;;11.20;99.90;;;;;;5090884;28;20048;-78
2024/01/03 11:32:29;;;;;;;20.10;4.10;;;11.30;99.90;;;;;;5088315;28;20515;-76
2024/01/03 11:35:04;;;;;;;18.85;3.38;;;11.50;99.90;;;;;;5085071;28;20047;-77
2024/01/03 11:37:31;;;;;;;17.83;3.60;;;11.60;99.90;;;;;;5087977;28;20044;-77
2024/01/03 11:39:58;;;;;;;25.20;4.68;;;11.60;99.90;;;;;;5089056;28;20093;-77
2024/01/03 11:42:33;;;;;;;16.40;2.60;;;11.70;99.90;;;;;;5089023;28;20044;-75
2024/01/03 11:45:09;;;;;;;16.25;3.83;;;11.60;99.90;;;;;;5067889;28;20101;-76
2024/01/03 11:47:44;;;;;;;26.70;3.60;;;11.60;99.90;;;;;;5078171;28;20581;-78
2024/01/03 11:50:13;;;;;;;12.23;2.67;;;11.60;99.90;;;;;;5084211;28;20262;-76
2024/01/03 11:52:45;;;;;;;19.63;3.72;;;11.70;99.90;;;;;;5088647;28;20085;-77
2024/01/03 11:55:13;;;;;;;12.57;2.85;;;11.70;99.90;;;;;;5069112;28;20044;-78
2024/01/03 11:57:41;;;;;;;11.20;2.10;;;11.70;99.90;;;;;;5071098;28;20282;-75
2024/01/03 12:00:10;;;;;;;18.02;4.78;;;11.60;99.90;;;;;;5087274;28;20056;-77
2024/01/03 12:02:36;;;;;;;11.77;2.70;;;11.60;99.90;;;;;;5090533;28;20050;-78
2024/01/03 12:05:08;;;;;;;17.45;2.90;;;11.70;99.90;;;;;;5086441;28;20059;-77
2024/01/03 12:07:35;;;;;;;16.35;3.70;;;11.80;99.90;;;;;;5087475;28;20036;-77
2024/01/03 12:10:06;;;;;;;17.33;3.55;;;11.90;99.90;;;;;;5069059;28;20048;-76
2024/01/03 12:12:33;;;;;;;17.40;3.00;;;12.00;99.90;;;;;;5052841;28;20055;-77
2024/01/03 12:14:59;;;;;;;20.10;4.03;;;12.00;99.90;;;;;;5087674;28;20040;-78
2024/01/03 12:17:30;;;;;;;13.30;3.10;;;12.00;99.90;;;;;;5088420;28;20048;-76
2024/01/03 12:20:10;;;;;;;14.23;2.88;;;12.00;99.90;;;;;;5082796;28;20046;-76
2024/01/03 12:22:37;;;;;;;17.38;2.88;;;12.10;99.90;;;;;;5078241;28;20052;-77
2024/01/03 12:25:04;;;;;;;12.88;3.10;;;12.20;99.90;;;;;;5085533;28;20138;-76
2024/01/03 12:27:33;;;;;;;13.45;3.08;;;12.20;99.90;;;;;;5085483;28;20048;-77
2024/01/03 12:30:16;;;;;;;15.85;3.95;;;12.20;99.90;;;;;;5085893;28;20112;-76
2024/01/03 12:32:44;;;;;;;21.38;2.83;;;12.10;99.90;;;;;;5084005;28;20635;-77
2024/01/03 12:35:12;;;;;;;14.52;4.40;;;11.90;99.90;;;;;;5086998;28;20059;-76
2024/01/03 12:37:44;;;;;;;17.23;3.13;;;11.70;99.90;;;;;;5086687;28;20454;-76
2024/01/03 12:40:15;;;;;;;13.65;2.85;;;11.50;99.90;;;;;;5089271;28;20048;-76
2024/01/03 12:42:42;;;;;;;21.45;3.30;;;11.20;99.90;;;;;;5089490;28;20125;-74
2024/01/03 12:45:10;;;;;;;21.23;3.45;;;10.90;99.90;;;;;;5090014;28;20048;-75